Time;durP1;ratioP1;P1;durP2;ratioP2;P2;SDS_P1;SDS_P2;PMS_P1;PMS_P2;Temp;Humidity;BMP_temperature;BMP_pressure;BME280_temperature;BME280_humidity;BME280_pressure;Samples;Min_cycle;Max_cycle;Signal;HPM_P1;HPM_P2
2022/07/08 00:02:37;;;;;;;2.95;2.58;;;;;;;;;;6312683;28;20331;-86
2022/07/08 00:05:39;;;;;;;4.40;2.75;;;;;;;;;;6313077;28;20056;-84
2022/07/08 00:08:40;;;;;;;4.40;2.80;;;;;;;;;;6313218;28;20101;-86
2022/07/08 00:11:42;;;;;;;5.07;2.92;;;;;;;;;;6315289;28;20056;-88
2022/07/08 00:14:45;;;;;;;5.28;2.70;;;;;;;;;;6311078;28;20056;-86
2022/07/08 00:17:47;;;;;;;3.55;2.53;;;;;;;;;;6316822;28;20067;-85
2022/07/08 00:20:49;;;;;;;4.75;2.50;;;;;;;;;;6311508;28;20232;-84
2022/07/08 00:23:50;;;;;;;5.13;2.58;;;;;;;;;;6308875;28;20048;-83
2022/07/08 00:26:52;;;;;;;5.55;2.63;;;;;;;;;;6313678;28;20149;-85
2022/07/08 00:29:55;;;;;;;4.90;2.63;;;;;;;;;;6314456;28;20236;-85
2022/07/08 00:32:57;;;;;;;5.30;2.60;;;;;;;;;;6312358;28;20289;-86
2022/07/08 00:35:59;;;;;;;6.13;2.42;;;;;;;;;;6313987;28;20048;-85
2022/07/08 00:39:00;;;;;;;4.68;2.40;;;;;;;;;;6315242;28;20045;-84
2022/07/08 00:42:02;;;;;;;4.03;2.38;;;;;;;;;;6314694;28;20059;-85
2022/07/08 00:45:06;;;;;;;8.60;3.15;;;;;;;;;;6313742;28;20274;-86
2022/07/08 00:48:08;;;;;;;8.10;2.97;;;;;;;;;;6318863;28;20055;-85
2022/07/08 00:51:12;;;;;;;4.90;2.47;;;;;;;;;;6317544;28;20049;-86
2022/07/08 00:54:16;;;;;;;5.47;2.17;;;;;;;;;;6316066;28;20040;-87
2022/07/08 00:57:18;;;;;;;5.40;2.20;;;;;;;;;;6315404;28;20102;-86
2022/07/08 01:00:21;;;;;;;5.47;2.20;;;;;;;;;;6318552;28;20044;-86
2022/07/08 01:03:23;;;;;;;5.43;2.28;;;;;;;;;;6315759;28;20055;-85
2022/07/08 01:06:24;;;;;;;6.72;2.50;;;;;;;;;;6319865;28;20052;-85
2022/07/08 01:09:26;;;;;;;6.85;2.60;;;;;;;;;;6318001;28;20585;-85
2022/07/08 01:12:28;;;;;;;4.80;2.40;;;;;;;;;;6320418;28;20331;-86
2022/07/08 01:15:31;;;;;;;4.30;2.28;;;;;;;;;;6317584;28;20267;-86
2022/07/08 01:18:33;;;;;;;8.63;2.60;;;;;;;;;;6315014;28;20044;-86
2022/07/08 01:21:36;;;;;;;3.15;1.95;;;;;;;;;;6319049;28;20052;-86
2022/07/08 01:24:37;;;;;;;9.80;2.30;;;;;;;;;;6321237;28;20115;-86
2022/07/08 01:27:39;;;;;;;6.20;2.25;;;;;;;;;;6314660;28;20048;-85
2022/07/08 01:30:41;;;;;;;16.05;2.22;;;;;;;;;;6315886;28;20048;-85
2022/07/08 01:33:43;;;;;;;5.28;2.00;;;;;;;;;;6319734;28;20370;-83
2022/07/08 01:36:46;;;;;;;6.97;2.00;;;;;;;;;;6318312;28;20056;-84
2022/07/08 01:39:48;;;;;;;4.63;2.03;;;;;;;;;;6315053;28;20387;-84
2022/07/08 01:42:49;;;;;;;4.40;2.58;;;;;;;;;;6315311;28;20323;-84
2022/07/08 01:45:51;;;;;;;5.90;2.40;;;;;;;;;;6317536;28;20052;-84
2022/07/08 01:48:53;;;;;;;3.72;1.95;;;;;;;;;;6318105;28;20045;-83
2022/07/08 01:51:56;;;;;;;5.05;2.10;;;;;;;;;;6316782;28;20055;-84
2022/07/08 01:54:57;;;;;;;3.30;1.95;;;;;;;;;;6321438;28;20048;-86
2022/07/08 01:57:59;;;;;;;4.60;2.40;;;;;;;;;;6314360;28;20052;-84
2022/07/08 02:01:01;;;;;;;7.45;2.20;;;;;;;;;;6317661;28;20048;-84
2022/07/08 02:04:02;;;;;;;4.22;2.60;;;;;;;;;;6312410;28;20255;-85
2022/07/08 02:07:06;;;;;;;4.88;2.90;;;;;;;;;;6313780;28;20231;-85
2022/07/08 02:10:08;;;;;;;5.55;2.67;;;;;;;;;;6319882;28;20056;-85
2022/07/08 02:13:09;;;;;;;3.90;2.10;;;;;;;;;;6313625;28;20055;-85
2022/07/08 02:16:11;;;;;;;5.20;2.10;;;;;;;;;;6314202;28;20064;-86
2022/07/08 02:19:12;;;;;;;4.80;1.73;;;;;;;;;;6315612;28;20062;-84
2022/07/08 02:22:16;;;;;;;7.03;2.15;;;;;;;;;;6313674;28;20049;-82
2022/07/08 02:25:17;;;;;;;;;;;;;;;;;;6316107;28;20090;-84
2022/07/08 02:28:19;;;;;;;3.78;1.60;;;;;;;;;;6314801;28;19916;-85
2022/07/08 02:31:21;;;;;;;5.05;1.90;;;;;;;;;;6314808;28;20235;-84
2022/07/08 02:34:22;;;;;;;4.97;1.58;;;;;;;;;;6317496;28;20331;-84
2022/07/08 02:37:26;;;;;;;3.60;1.85;;;;;;;;;;6318045;28;20063;-84
2022/07/08 02:40:28;;;;;;;3.85;1.88;;;;;;;;;;6315870;28;20103;-84
2022/07/08 02:43:29;;;;;;;5.47;1.75;;;;;;;;;;6317455;28;20048;-85
2022/07/08 02:46:31;;;;;;;4.47;2.30;;;;;;;;;;6312552;28;20051;-85
2022/07/08 02:49:33;;;;;;;5.75;2.28;;;;;;;;;;6320272;28;20044;-86
2022/07/08 02:52:36;;;;;;;5.10;2.03;;;;;;;;;;6316114;28;20050;-85
2022/07/08 02:55:37;;;;;;;3.72;1.90;;;;;;;;;;6318636;28;20040;-83
2022/07/08 02:58:39;;;;;;;5.97;1.88;;;;;;;;;;6317195;28;20040;-82
2022/07/08 03:01:41;;;;;;;3.60;1.75;;;;;;;;;;6311487;28;20266;-83
2022/07/08 03:04:43;;;;;;;4.00;1.80;;;;;;;;;;6316168;28;20044;-83
2022/07/08 03:07:47;;;;;;;3.05;2.20;;;;;;;;;;6314159;28;20048;-87
2022/07/08 03:10:49;;;;;;;5.38;1.83;;;;;;;;;;6317091;28;20058;-83
2022/07/08 03:13:50;;;;;;;4.90;1.90;;;;;;;;;;6317764;28;20085;-84
2022/07/08 03:16:52;;;;;;;2.97;1.80;;;;;;;;;;6314551;28;20067;-85
2022/07/08 03:19:54;;;;;;;3.00;1.90;;;;;;;;;;6320118;28;20048;-82
2022/07/08 03:22:57;;;;;;;5.03;1.70;;;;;;;;;;6312350;28;20235;-84
2022/07/08 03:25:58;;;;;;;4.40;1.95;;;;;;;;;;6316396;28;20052;-84
2022/07/08 03:29:00;;;;;;;4.38;1.55;;;;;;;;;;6312031;28;20101;-84
2022/07/08 03:32:02;;;;;;;4.68;1.73;;;;;;;;;;6314700;28;20049;-84
2022/07/08 03:35:04;;;;;;;4.55;1.70;;;;;;;;;;6314168;28;20097;-83
2022/07/08 03:38:07;;;;;;;3.58;1.60;;;;;;;;;;6320056;28;20063;-83
2022/07/08 03:41:21;;;;;;;6.68;1.75;;;;;;;;;;6315829;28;20106;-84
2022/07/08 03:44:22;;;;;;;4.60;1.60;;;;;;;;;;6313770;28;20052;-84
2022/07/08 03:47:24;;;;;;;4.15;1.48;;;;;;;;;;6313983;28;20049;-84
2022/07/08 03:50:26;;;;;;;2.88;1.70;;;;;;;;;;6312982;28;20231;-85
2022/07/08 03:53:29;;;;;;;8.52;2.22;;;;;;;;;;6313902;28;20068;-85
2022/07/08 03:56:31;;;;;;;5.68;1.70;;;;;;;;;;6314090;28;20044;-84
2022/07/08 03:59:33;;;;;;;4.05;1.60;;;;;;;;;;6316222;28;20048;-83
2022/07/08 04:02:35;;;;;;;7.80;1.73;;;;;;;;;;6315316;28;20223;-85
2022/07/08 04:05:38;;;;;;;3.53;1.48;;;;;;;;;;6313073;28;20366;-83
2022/07/08 04:08:42;;;;;;;3.78;1.55;;;;;;;;;;6316242;28;20079;-83
2022/07/08 04:11:44;;;;;;;3.33;1.50;;;;;;;;;;6313951;28;20049;-83
2022/07/08 04:14:46;;;;;;;3.70;1.65;;;;;;;;;;6316510;28;20052;-84
2022/07/08 04:17:47;;;;;;;4.68;1.90;;;;;;;;;;6313066;28;20247;-84
2022/07/08 04:20:49;;;;;;;4.85;1.60;;;;;;;;;;6318178;28;20126;-84
2022/07/08 04:23:57;;;;;;;7.50;1.52;;;;;;;;;;6319059;28;20043;-81
2022/07/08 04:26:59;;;;;;;3.35;1.50;;;;;;;;;;6317892;28;20060;-83
2022/07/08 04:30:02;;;;;;;5.72;1.80;;;;;;;;;;6318793;28;20048;-85
2022/07/08 04:33:04;;;;;;;5.53;1.83;;;;;;;;;;6319002;28;20054;-85
2022/07/08 04:36:07;;;;;;;7.80;1.85;;;;;;;;;;6320426;28;20056;-83
2022/07/08 04:39:10;;;;;;;6.57;1.67;;;;;;;;;;6318229;28;20055;-84
2022/07/08 04:42:12;;;;;;;;;;;;;;;;;;6318719;28;20047;-85
2022/07/08 04:45:13;;;;;;;5.18;2.05;;;;;;;;;;6318022;28;20099;-85
2022/07/08 04:48:15;;;;;;;3.35;1.70;;;;;;;;;;6318398;28;20043;-84
2022/07/08 04:51:17;;;;;;;5.82;1.77;;;;;;;;;;6316506;28;20363;-84
2022/07/08 04:54:20;;;;;;;4.63;1.60;;;;;;;;;;6320316;28;20324;-84
2022/07/08 04:57:21;;;;;;;6.72;1.60;;;;;;;;;;6318445;28;20083;-84
2022/07/08 05:00:23;;;;;;;6.60;1.88;;;;;;;;;;6315463;28;20063;-84
2022/07/08 05:03:25;;;;;;;5.25;1.70;;;;;;;;;;6325657;28;20052;-84
2022/07/08 05:06:27;;;;;;;5.65;1.73;;;;;;;;;;6343173;28;20051;-86
2022/07/08 05:09:30;;;;;;;4.07;1.85;;;;;;;;;;6344610;28;20044;-84
2022/07/08 05:12:32;;;;;;;3.55;1.70;;;;;;;;;;6341337;28;20063;-86
2022/07/08 05:15:34;;;;;;;4.60;1.92;;;;;;;;;;6340469;28;20059;-83
2022/07/08 05:18:35;;;;;;;2.78;1.50;;;;;;;;;;6341844;28;20243;-84
2022/07/08 05:21:37;;;;;;;5.43;1.85;;;;;;;;;;6342542;28;20203;-85
2022/07/08 05:24:40;;;;;;;5.13;1.63;;;;;;;;;;6338380;27;20266;-84
2022/07/08 05:27:42;;;;;;;4.15;2.42;;;;;;;;;;6340865;28;20395;-85
2022/07/08 05:30:44;;;;;;;3.08;1.40;;;;;;;;;;6343009;28;20044;-80
2022/07/08 05:33:46;;;;;;;4.47;1.60;;;;;;;;;;6339972;28;20055;-86
2022/07/08 05:36:47;;;;;;;7.47;1.65;;;;;;;;;;6343568;27;20258;-85
2022/07/08 05:39:50;;;;;;;3.53;1.77;;;;;;;;;;6343548;28;20067;-86
2022/07/08 05:42:52;;;;;;;4.90;2.05;;;;;;;;;;6342644;28;20055;-83
2022/07/08 05:45:54;;;;;;;5.80;1.65;;;;;;;;;;6338430;28;20052;-89
2022/07/08 05:48:56;;;;;;;3.28;1.90;;;;;;;;;;6341119;28;20119;-81
2022/07/08 05:51:57;;;;;;;5.97;1.77;;;;;;;;;;6340817;27;20393;-86
2022/07/08 05:55:00;;;;;;;3.53;1.60;;;;;;;;;;6337527;28;20257;-82
2022/07/08 05:58:02;;;;;;;5.85;1.73;;;;;;;;;;6338380;28;20338;-86
2022/07/08 06:01:04;;;;;;;7.63;2.65;;;;;;;;;;6339613;28;20055;-88
2022/07/08 06:04:06;;;;;;;9.10;1.83;;;;;;;;;;6319837;28;20048;-87
2022/07/08 06:07:08;;;;;;;4.75;1.88;;;;;;;;;;6314667;28;20056;-88
2022/07/08 06:10:11;;;;;;;4.82;1.67;;;;;;;;;;6319212;28;20052;-87
2022/07/08 06:13:12;;;;;;;4.18;1.63;;;;;;;;;;6315134;28;20063;-87
2022/07/08 06:16:14;;;;;;;6.45;2.10;;;;;;;;;;6315542;28;20435;-88
2022/07/08 06:19:16;;;;;;;5.65;1.60;;;;;;;;;;6314993;28;20119;-88
2022/07/08 06:22:18;;;;;;;8.30;2.08;;;;;;;;;;6315773;28;20040;-87
2022/07/08 06:25:21;;;;;;;7.30;1.85;;;;;;;;;;6312217;28;20094;-86
2022/07/08 06:28:24;;;;;;;8.15;1.52;;;;;;;;;;6311796;28;20101;-87
2022/07/08 06:31:26;;;;;;;7.80;2.17;;;;;;;;;;6317129;28;20067;-87
2022/07/08 06:34:28;;;;;;;6.13;1.90;;;;;;;;;;6315702;28;20040;-86
2022/07/08 06:37:29;;;;;;;7.15;2.20;;;;;;;;;;6316685;28;20066;-87
2022/07/08 06:40:32;;;;;;;6.05;1.90;;;;;;;;;;6312749;28;20052;-86
2022/07/08 06:43:34;;;;;;;7.85;1.90;;;;;;;;;;6315479;28;20111;-89
2022/07/08 06:46:36;;;;;;;3.88;1.73;;;;;;;;;;6316058;28;20048;-87
2022/07/08 06:49:38;;;;;;;7.25;1.60;;;;;;;;;;6317503;28;20057;-86
2022/07/08 06:52:39;;;;;;;5.20;1.60;;;;;;;;;;6314666;28;20101;-85
2022/07/08 06:55:42;;;;;;;4.53;1.67;;;;;;;;;;6315546;28;20060;-88
2022/07/08 06:58:44;;;;;;;7.07;2.30;;;;;;;;;;6315214;28;20052;-87
2022/07/08 07:01:46;;;;;;;3.50;1.77;;;;;;;;;;6316396;28;20044;-86
2022/07/08 07:04:48;;;;;;;7.25;1.50;;;;;;;;;;6314236;28;20059;-87
2022/07/08 07:07:50;;;;;;;6.10;1.73;;;;;;;;;;6313330;28;20053;-87
2022/07/08 07:10:53;;;;;;;5.13;1.45;;;;;;;;;;6318870;28;20059;-87
2022/07/08 07:13:54;;;;;;;6.88;2.42;;;;;;;;;;6316512;28;20062;-86
2022/07/08 07:16:56;;;;;;;3.58;1.65;;;;;;;;;;6313555;28;20062;-87
2022/07/08 07:19:58;;;;;;;8.85;2.38;;;;;;;;;;6313439;28;20059;-86
2022/07/08 07:23:00;;;;;;;4.93;1.47;;;;;;;;;;6313439;28;20331;-86
2022/07/08 07:26:03;;;;;;;7.22;1.70;;;;;;;;;;6317095;28;20054;-88
2022/07/08 07:29:05;;;;;;;4.35;1.48;;;;;;;;;;6314213;28;20327;-87
2022/07/08 07:32:07;;;;;;;6.07;1.58;;;;;;;;;;6316835;28;20222;-88
2022/07/08 07:35:09;;;;;;;4.40;1.30;;;;;;;;;;6313880;28;20048;-87
2022/07/08 07:38:11;;;;;;;2.97;1.33;;;;;;;;;;6313616;28;20463;-86
2022/07/08 07:41:14;;;;;;;4.53;1.65;;;;;;;;;;6310408;28;20044;-86
2022/07/08 07:44:16;;;;;;;3.78;1.52;;;;;;;;;;6314207;28;20052;-87
2022/07/08 07:47:17;;;;;;;5.32;1.50;;;;;;;;;;6318232;28;20044;-88
2022/07/08 07:50:19;;;;;;;4.70;1.92;;;;;;;;;;6313889;28;20332;-87
2022/07/08 07:53:21;;;;;;;6.28;1.88;;;;;;;;;;6311590;28;20060;-89
2022/07/08 07:56:24;;;;;;;3.92;1.60;;;;;;;;;;6314020;28;20048;-88
2022/07/08 07:59:26;;;;;;;7.53;1.85;;;;;;;;;;6317669;28;20216;-86
2022/07/08 08:02:27;;;;;;;4.68;1.73;;;;;;;;;;6316513;28;20044;-86
2022/07/08 08:05:29;;;;;;;10.38;2.22;;;;;;;;;;6317793;28;20067;-87
2022/07/08 08:08:32;;;;;;;4.63;1.85;;;;;;;;;;6316949;28;20048;-87
2022/07/08 08:11:35;;;;;;;6.03;2.10;;;;;;;;;;6317597;28;20094;-86
2022/07/08 08:14:36;;;;;;;;;;;;;;;;;;6318821;28;20323;-87
2022/07/08 08:17:39;;;;;;;4.38;2.08;;;;;;;;;;6321295;28;19924;-86
2022/07/08 08:20:40;;;;;;;9.80;2.37;;;;;;;;;;6315112;28;20204;-89
2022/07/08 08:23:42;;;;;;;6.18;2.20;;;;;;;;;;6321343;28;20052;-86
2022/07/08 08:26:46;;;;;;;4.88;1.90;;;;;;;;;;6320505;28;20048;-87
2022/07/08 08:29:48;;;;;;;7.18;2.08;;;;;;;;;;6321351;28;20074;-86
2022/07/08 08:32:50;;;;;;;7.05;2.00;;;;;;;;;;6316826;28;20051;-89
2022/07/08 08:35:52;;;;;;;14.70;2.65;;;;;;;;;;6314903;28;20048;-86
2022/07/08 08:38:53;;;;;;;5.70;2.28;;;;;;;;;;6323989;28;20052;-80
2022/07/08 08:41:56;;;;;;;6.22;2.08;;;;;;;;;;6314372;28;20064;-86
2022/07/08 08:44:58;;;;;;;;;;;;;;;;;;6317721;28;20123;-81
2022/07/08 08:48:02;;;;;;;6.80;2.00;;;;;;;;;;6315650;28;19916;-81
2022/07/08 08:51:08;;;;;;;6.30;1.92;;;;;;;;;;6319088;28;20048;-81
2022/07/08 08:54:10;;;;;;;4.45;2.03;;;;;;;;;;6322209;28;20048;-79
2022/07/08 08:57:13;;;;;;;5.63;2.17;;;;;;;;;;6313038;28;20047;-79
2022/07/08 09:00:15;;;;;;;;;;;;;;;;;;6315308;28;20056;-80
2022/07/08 09:03:17;;;;;;;7.05;2.33;;;;;;;;;;6319806;28;19923;-82
2022/07/08 09:06:18;;;;;;;5.25;2.28;;;;;;;;;;6315727;28;20055;-82
2022/07/08 09:09:20;;;;;;;4.28;1.48;;;;;;;;;;6316798;28;20324;-82
2022/07/08 09:12:25;;;;;;;4.30;1.90;;;;;;;;;;6320623;28;20048;-81
2022/07/08 09:15:30;;;;;;;11.18;2.15;;;;;;;;;;6315333;28;20064;-87
2022/07/08 09:18:38;;;;;;;4.57;1.67;;;;;;;;;;6314037;28;20128;-79
2022/07/08 09:21:40;;;;;;;2.88;1.45;;;;;;;;;;6317621;28;20056;-83
2022/07/08 09:24:45;;;;;;;5.53;2.10;;;;;;;;;;6319150;28;20056;-82
2022/07/08 09:27:49;;;;;;;3.60;1.70;;;;;;;;;;6315172;28;20048;-85
2022/07/08 09:30:55;;;;;;;4.45;1.73;;;;;;;;;;6318208;28;20044;-86
2022/07/08 09:33:58;;;;;;;4.13;1.60;;;;;;;;;;6314297;28;20060;-83
2022/07/08 09:37:00;;;;;;;8.38;1.83;;;;;;;;;;6315797;28;20072;-83
2022/07/08 09:40:02;;;;;;;4.88;1.75;;;;;;;;;;6314611;28;20056;-83
2022/07/08 09:43:12;;;;;;;8.90;1.83;;;;;;;;;;6316517;28;20049;-82
2022/07/08 09:46:14;;;;;;;6.00;1.73;;;;;;;;;;6317948;28;20067;-82
2022/07/08 09:49:34;;;;;;;7.15;1.95;;;;;;;;;;6312607;28;20098;-83
2022/07/08 09:52:35;;;;;;;4.28;1.75;;;;;;;;;;6315716;28;20259;-82
2022/07/08 09:55:39;;;;;;;5.30;2.20;;;;;;;;;;6314381;28;20044;-83
2022/07/08 09:58:42;;;;;;;3.22;1.80;;;;;;;;;;6318699;28;20057;-83
2022/07/08 10:01:43;;;;;;;4.90;2.08;;;;;;;;;;6313376;28;20048;-80
2022/07/08 10:04:45;;;;;;;4.33;2.17;;;;;;;;;;6317611;28;20055;-83
2022/07/08 10:07:47;;;;;;;5.13;1.98;;;;;;;;;;6315046;28;20455;-81
2022/07/08 10:10:49;;;;;;;5.78;1.90;;;;;;;;;;6316643;28;20040;-81
2022/07/08 10:13:52;;;;;;;2.30;1.55;;;;;;;;;;6317763;28;20126;-82
2022/07/08 10:16:54;;;;;;;3.72;1.83;;;;;;;;;;6317063;28;20056;-82
2022/07/08 10:19:56;;;;;;;5.13;1.48;;;;;;;;;;6318139;28;20067;-83
2022/07/08 10:23:00;;;;;;;5.50;1.70;;;;;;;;;;6314498;28;20052;-84
2022/07/08 10:26:03;;;;;;;5.93;1.50;;;;;;;;;;6312866;28;20141;-83
2022/07/08 10:29:06;;;;;;;;;;;;;;;;;;6315975;28;20040;-85
2022/07/08 10:32:23;;;;;;;4.13;1.77;;;;;;;;;;6314406;28;19931;-85
2022/07/08 10:35:25;;;;;;;5.80;2.15;;;;;;;;;;6312607;28;20060;-86
2022/07/08 10:38:29;;;;;;;4.30;1.95;;;;;;;;;;6310816;28;20124;-83
2022/07/08 10:41:31;;;;;;;2.42;1.80;;;;;;;;;;6312902;28;20048;-85
2022/07/08 10:45:01;;;;;;;3.72;1.85;;;;;;;;;;6313589;28;20047;-82
2022/07/08 10:48:07;;;;;;;13.70;2.08;;;;;;;;;;6214603;28;20057;-83
2022/07/08 10:51:44;;;;;;;3.47;1.73;;;;;;;;;;6217675;28;20054;-82
2022/07/08 10:54:46;;;;;;;7.30;1.90;;;;;;;;;;6210996;28;20050;-83
2022/07/08 10:57:54;;;;;;;8.63;1.80;;;;;;;;;;6210843;28;20072;-81
2022/07/08 11:01:24;;;;;;;3.17;1.80;;;;;;;;;;6213627;28;20062;-80
2022/07/08 11:04:29;;;;;;;5.00;1.65;;;;;;;;;;6213631;28;20068;-80
2022/07/08 11:07:31;;;;;;;4.63;2.00;;;;;;;;;;6214073;28;20049;-79
2022/07/08 11:10:33;;;;;;;3.05;1.73;;;;;;;;;;6211884;28;20061;-77
2022/07/08 11:13:35;;;;;;;4.18;1.65;;;;;;;;;;6216562;28;20080;-77
2022/07/08 11:16:38;;;;;;;6.15;1.92;;;;;;;;;;6211012;28;20103;-76
2022/07/08 11:19:41;;;;;;;5.82;1.83;;;;;;;;;;6212686;28;20054;-78
2022/07/08 11:22:44;;;;;;;4.85;1.67;;;;;;;;;;6242650;28;20050;-80
2022/07/08 11:25:47;;;;;;;4.90;1.90;;;;;;;;;;6342518;28;20106;-77
2022/07/08 11:28:48;;;;;;;4.43;1.77;;;;;;;;;;6334678;28;20036;-78
2022/07/08 11:31:57;;;;;;;4.32;2.00;;;;;;;;;;6337603;28;20043;-77
2022/07/08 11:34:59;;;;;;;4.32;1.70;;;;;;;;;;6337083;28;20067;-77
2022/07/08 11:38:01;;;;;;;5.25;1.90;;;;;;;;;;6338333;27;20530;-75
2022/07/08 11:41:02;;;;;;;3.63;1.80;;;;;;;;;;6338567;28;20116;-76
2022/07/08 11:44:09;;;;;;;4.93;1.60;;;;;;;;;;6337945;28;20047;-78
2022/07/08 11:47:17;;;;;;;3.92;1.70;;;;;;;;;;6339697;28;20052;-79
2022/07/08 11:50:19;;;;;;;5.15;1.90;;;;;;;;;;6335200;28;20059;-81
2022/07/08 11:53:22;;;;;;;3.38;1.80;;;;;;;;;;6339297;28;20054;-80
2022/07/08 11:56:24;;;;;;;5.25;1.70;;;;;;;;;;6337627;28;20361;-81
2022/07/08 11:59:27;;;;;;;4.65;1.77;;;;;;;;;;6341711;28;20056;-81
2022/07/08 12:02:30;;;;;;;3.05;1.73;;;;;;;;;;6326696;28;20106;-81
2022/07/08 12:05:36;;;;;;;4.97;1.90;;;;;;;;;;6308813;28;20060;-80
2022/07/08 12:08:42;;;;;;;6.32;1.60;;;;;;;;;;6312071;28;20243;-82
2022/07/08 12:11:45;;;;;;;5.47;1.95;;;;;;;;;;6314097;28;20068;-81
2022/07/08 12:14:47;;;;;;;2.80;1.70;;;;;;;;;;6311520;28;20071;-79
2022/07/08 12:17:58;;;;;;;3.53;1.70;;;;;;;;;;6311630;28;20338;-82
2022/07/08 12:20:59;;;;;;;4.68;2.15;;;;;;;;;;6314162;28;20319;-83
2022/07/08 12:24:02;;;;;;;2.70;1.90;;;;;;;;;;6312032;28;20063;-81
2022/07/08 12:27:07;;;;;;;8.07;2.00;;;;;;;;;;6312950;28;20060;-81
2022/07/08 12:30:09;;;;;;;6.35;2.67;;;;;;;;;;6308861;28;20115;-80
2022/07/08 12:33:12;;;;;;;3.00;2.00;;;;;;;;;;6313976;28;20074;-81
2022/07/08 12:36:27;;;;;;;4.35;1.80;;;;;;;;;;6313793;28;20048;-82
2022/07/08 12:39:29;;;;;;;3.83;1.95;;;;;;;;;;6313257;28;20051;-81
2022/07/08 12:42:31;;;;;;;;;;;;;;;;;;6312761;28;20051;-81
2022/07/08 12:45:32;;;;;;;5.35;1.90;;;;;;;;;;6314813;28;19924;-83
2022/07/08 12:48:35;;;;;;;5.97;1.75;;;;;;;;;;6316158;28;20052;-81
2022/07/08 12:51:37;;;;;;;5.65;1.70;;;;;;;;;;6316876;28;20056;-80
2022/07/08 12:54:40;;;;;;;2.35;1.67;;;;;;;;;;6315006;28;20048;-82
2022/07/08 12:57:43;;;;;;;2.80;1.60;;;;;;;;;;6316311;28;20053;-81
2022/07/08 13:00:44;;;;;;;3.22;1.70;;;;;;;;;;6313471;28;20052;-82
2022/07/08 13:03:49;;;;;;;4.13;1.70;;;;;;;;;;6314606;28;20056;-81
2022/07/08 13:06:52;;;;;;;5.50;2.00;;;;;;;;;;6315828;28;20389;-82
2022/07/08 13:09:55;;;;;;;2.83;1.58;;;;;;;;;;6315685;28;20056;-82
2022/07/08 13:12:57;;;;;;;4.80;1.63;;;;;;;;;;6317207;28;20063;-82
2022/07/08 13:15:58;;;;;;;2.92;1.40;;;;;;;;;;6316559;28;20052;-82
2022/07/08 13:19:02;;;;;;;3.15;1.77;;;;;;;;;;6316299;28;20102;-81
2022/07/08 13:22:04;;;;;;;2.65;1.20;;;;;;;;;;6316320;28;20331;-82
2022/07/08 13:25:06;;;;;;;3.13;1.25;;;;;;;;;;6314698;28;20110;-82
2022/07/08 13:28:08;;;;;;;3.53;1.60;;;;;;;;;;6315897;28;20089;-82
2022/07/08 13:31:09;;;;;;;2.15;1.48;;;;;;;;;;6315337;28;20055;-82
2022/07/08 13:34:19;;;;;;;1.88;1.20;;;;;;;;;;6316292;28;20056;-82
2022/07/08 13:37:20;;;;;;;1.40;1.10;;;;;;;;;;6319813;28;20056;-81
2022/07/08 13:40:22;;;;;;;2.20;1.33;;;;;;;;;;6316080;28;20048;-81
2022/07/08 13:43:24;;;;;;;2.88;1.20;;;;;;;;;;6318779;28;20063;-82
2022/07/08 13:46:26;;;;;;;5.50;1.58;;;;;;;;;;6317524;28;20075;-82
2022/07/08 13:49:29;;;;;;;4.53;1.30;;;;;;;;;;6322517;28;20072;-86
2022/07/08 13:52:31;;;;;;;2.45;1.20;;;;;;;;;;6314298;28;20044;-82
2022/07/08 13:55:33;;;;;;;2.10;1.40;;;;;;;;;;6316540;28;20075;-83
2022/07/08 13:58:35;;;;;;;1.85;1.20;;;;;;;;;;6312123;28;20234;-84
2022/07/08 14:01:36;;;;;;;2.13;1.20;;;;;;;;;;6319436;28;20045;-83
2022/07/08 14:04:39;;;;;;;3.58;1.70;;;;;;;;;;6314821;28;20110;-82
2022/07/08 14:07:41;;;;;;;1.90;1.27;;;;;;;;;;6313962;28;20044;-83
2022/07/08 14:10:43;;;;;;;3.70;1.33;;;;;;;;;;6316035;28;20044;-83
2022/07/08 14:13:45;;;;;;;1.88;1.05;;;;;;;;;;6316459;28;20051;-82
2022/07/08 14:16:46;;;;;;;5.90;1.40;;;;;;;;;;6311739;28;20040;-84
2022/07/08 14:19:49;;;;;;;3.45;1.25;;;;;;;;;;6317570;28;20064;-83
2022/07/08 14:22:51;;;;;;;3.20;1.20;;;;;;;;;;6313797;28;20090;-83
2022/07/08 14:25:53;;;;;;;3.63;1.50;;;;;;;;;;6315320;28;20136;-82
2022/07/08 14:28:54;;;;;;;3.50;1.35;;;;;;;;;;6315797;28;20063;-83
2022/07/08 14:31:57;;;;;;;4.75;1.25;;;;;;;;;;6314126;28;20430;-82
2022/07/08 14:35:00;;;;;;;3.83;1.00;;;;;;;;;;6313765;28;20048;-81
2022/07/08 14:38:02;;;;;;;3.42;1.40;;;;;;;;;;6315898;28;20067;-81
2022/07/08 14:41:04;;;;;;;9.45;1.65;;;;;;;;;;6314279;28;20081;-82
2022/07/08 14:44:06;;;;;;;2.13;1.20;;;;;;;;;;6312630;28;20050;-80
2022/07/08 14:47:08;;;;;;;2.78;1.05;;;;;;;;;;6316220;28;20067;-81
2022/07/08 14:50:11;;;;;;;4.17;1.50;;;;;;;;;;6315686;28;20056;-80
2022/07/08 14:53:13;;;;;;;1.85;1.25;;;;;;;;;;6318814;28;20048;-80
2022/07/08 14:56:14;;;;;;;2.50;1.42;;;;;;;;;;6314892;28;20044;-80
2022/07/08 14:59:16;;;;;;;2.90;1.10;;;;;;;;;;6311935;28;20059;-80
2022/07/08 15:02:18;;;;;;;2.17;1.20;;;;;;;;;;6312904;28;20847;-81
2022/07/08 15:05:21;;;;;;;2.60;1.13;;;;;;;;;;6313458;28;20048;-81
2022/07/08 15:08:25;;;;;;;2.78;1.20;;;;;;;;;;6311817;28;20048;-80
2022/07/08 15:11:27;;;;;;;2.58;1.10;;;;;;;;;;6317841;28;20058;-82
2022/07/08 15:14:29;;;;;;;4.97;1.33;;;;;;;;;;6313341;28;20067;-79
2022/07/08 15:17:30;;;;;;;2.35;1.20;;;;;;;;;;6316736;28;20056;-81
2022/07/08 15:20:33;;;;;;;3.35;1.10;;;;;;;;;;6308332;28;20052;-82
2022/07/08 15:23:35;;;;;;;2.45;1.10;;;;;;;;;;6313514;28;20044;-81
2022/07/08 15:26:37;;;;;;;5.53;1.15;;;;;;;;;;6319376;28;20060;-81
2022/07/08 15:29:39;;;;;;;1.95;1.15;;;;;;;;;;6314422;28;20113;-81
2022/07/08 15:32:42;;;;;;;3.35;1.20;;;;;;;;;;6315708;28;20045;-80
2022/07/08 15:35:45;;;;;;;3.75;1.40;;;;;;;;;;6317590;28;20071;-81
2022/07/08 15:38:46;;;;;;;2.70;1.10;;;;;;;;;;6314983;28;20377;-82
2022/07/08 15:41:48;;;;;;;2.83;1.30;;;;;;;;;;6312841;28;20090;-81
2022/07/08 15:44:49;;;;;;;4.07;1.10;;;;;;;;;;6315266;28;20047;-80
2022/07/08 15:47:52;;;;;;;5.18;1.30;;;;;;;;;;6312583;28;20044;-88
2022/07/08 15:50:58;;;;;;;3.35;1.23;;;;;;;;;;6315077;28;20090;-82
2022/07/08 15:53:59;;;;;;;9.73;1.52;;;;;;;;;;6316829;28;20055;-86
2022/07/08 15:57:01;;;;;;;5.38;1.10;;;;;;;;;;6310713;28;20347;-86
2022/07/08 16:00:03;;;;;;;3.90;1.10;;;;;;;;;;6311676;28;21091;-85
2022/07/08 16:03:05;;;;;;;2.97;1.20;;;;;;;;;;6314847;28;20052;-85
2022/07/08 16:06:08;;;;;;;3.13;1.13;;;;;;;;;;6314808;28;20215;-85
2022/07/08 16:09:10;;;;;;;3.00;1.17;;;;;;;;;;6314291;28;20064;-84
2022/07/08 16:12:11;;;;;;;3.17;1.20;;;;;;;;;;6310215;28;20370;-84
2022/07/08 16:15:13;;;;;;;4.25;1.38;;;;;;;;;;6314342;28;20224;-84
2022/07/08 16:18:15;;;;;;;2.58;1.40;;;;;;;;;;6313221;28;20059;-85
2022/07/08 16:21:18;;;;;;;6.10;1.42;;;;;;;;;;6316586;28;20266;-85
2022/07/08 16:24:21;;;;;;;4.07;1.20;;;;;;;;;;6322848;28;20278;-85
2022/07/08 16:27:22;;;;;;;;;;;;;;;;;;6318793;28;20048;-84
2022/07/08 16:30:24;;;;;;;3.30;1.13;;;;;;;;;;6316835;28;20926;-85
2022/07/08 16:33:27;;;;;;;2.83;1.10;;;;;;;;;;6320629;28;20044;-85
2022/07/08 16:36:34;;;;;;;2.72;1.38;;;;;;;;;;6318555;28;20461;-85
2022/07/08 16:39:36;;;;;;;1.40;1.10;;;;;;;;;;6318425;28;20044;-85
2022/07/08 16:42:38;;;;;;;3.10;1.17;;;;;;;;;;6316512;28;20074;-84
2022/07/08 16:45:42;;;;;;;3.17;1.50;;;;;;;;;;6314438;28;21415;-85
2022/07/08 16:48:51;;;;;;;3.58;1.35;;;;;;;;;;6317805;28;20138;-81
2022/07/08 16:51:54;;;;;;;7.13;1.90;;;;;;;;;;6319337;28;20060;-85
2022/07/08 16:54:56;;;;;;;4.18;1.40;;;;;;;;;;6316766;28;20067;-83
2022/07/08 16:57:57;;;;;;;3.40;1.20;;;;;;;;;;6314697;28;20060;-83
2022/07/08 17:00:59;;;;;;;2.80;1.20;;;;;;;;;;6314133;28;20052;-82
2022/07/08 17:04:01;;;;;;;4.57;1.23;;;;;;;;;;6315517;28;20288;-74
2022/07/08 17:07:05;;;;;;;1.52;1.30;;;;;;;;;;6314168;28;20236;-83
2022/07/08 17:10:08;;;;;;;1.48;1.10;;;;;;;;;;6315176;28;20122;-84
2022/07/08 17:13:09;;;;;;;3.28;1.08;;;;;;;;;;6312109;28;20071;-84
2022/07/08 17:16:12;;;;;;;2.53;1.30;;;;;;;;;;6312665;28;20119;-81
2022/07/08 17:19:13;;;;;;;2.87;1.20;;;;;;;;;;6312044;28;20340;-82
2022/07/08 17:22:16;;;;;;;2.58;1.23;;;;;;;;;;6314123;28;20044;-84
2022/07/08 17:25:19;;;;;;;2.13;1.20;;;;;;;;;;6311535;28;20052;-86
2022/07/08 17:28:20;;;;;;;3.05;1.30;;;;;;;;;;6309621;28;20052;-88
2022/07/08 17:31:22;;;;;;;2.55;1.50;;;;;;;;;;6317141;28;20052;-84
2022/07/08 17:34:24;;;;;;;1.92;1.20;;;;;;;;;;6312676;28;20056;-83
2022/07/08 17:37:27;;;;;;;5.10;1.40;;;;;;;;;;6313167;28;20048;-85
2022/07/08 17:40:29;;;;;;;1.70;1.10;;;;;;;;;;6311471;28;20060;-88
2022/07/08 17:43:30;;;;;;;4.97;1.20;;;;;;;;;;6314044;28;20239;-84
2022/07/08 17:46:32;;;;;;;3.63;1.25;;;;;;;;;;6310831;28;20209;-83
2022/07/08 17:49:34;;;;;;;1.63;0.95;;;;;;;;;;6316383;28;20078;-86
2022/07/08 17:52:37;;;;;;;2.93;1.33;;;;;;;;;;6320028;28;20055;-85
2022/07/08 17:55:38;;;;;;;;;;;;;;;;;;6315135;28;20113;-81
2022/07/08 17:58:40;;;;;;;4.60;1.20;;;;;;;;;;6315529;28;20184;-79
2022/07/08 18:01:42;;;;;;;6.68;1.13;;;;;;;;;;6315400;28;20097;-82
2022/07/08 18:04:44;;;;;;;1.75;1.30;;;;;;;;;;6318053;28;20048;-84
2022/07/08 18:07:47;;;;;;;6.25;1.25;;;;;;;;;;6319677;28;20044;-79
2022/07/08 18:10:50;;;;;;;5.22;1.40;;;;;;;;;;6309693;28;20063;-80
2022/07/08 18:13:52;;;;;;;4.07;1.38;;;;;;;;;;6314552;28;20052;-78
2022/07/08 18:16:54;;;;;;;3.90;1.45;;;;;;;;;;6312990;28;20048;-77
2022/07/08 18:19:55;;;;;;;3.25;1.67;;;;;;;;;;6312186;28;20055;-82